sensor_id;sensor_type;location;lat;lon;timestamp;P1;durP1;ratioP1;P2;durP2;ratioP2
66485;SDS011;53303;47.476;8.084;2023-03-04T00:01:15;22.20;;;9.68;;
66485;SDS011;53303;47.476;8.084;2023-03-04T00:03:40;30.90;;;9.70;;
66485;SDS011;53303;47.476;8.084;2023-03-04T00:06:06;20.38;;;9.50;;
66485;SDS011;53303;47.476;8.084;2023-03-04T00:08:32;19.65;;;9.65;;
66485;SDS011;53303;47.476;8.084;2023-03-04T00:10:57;25.15;;;9.88;;
66485;SDS011;53303;47.476;8.084;2023-03-04T00:13:23;20.70;;;9.63;;
66485;SDS011;53303;47.476;8.084;2023-03-04T00:15:50;20.40;;;9.32;;
66485;SDS011;53303;47.476;8.084;2023-03-04T00:18:16;19.45;;;9.80;;
66485;SDS011;53303;47.476;8.084;2023-03-04T00:20:42;19.33;;;9.45;;
66485;SDS011;53303;47.476;8.084;2023-03-04T00:23:07;22.83;;;9.35;;
66485;SDS011;53303;47.476;8.084;2023-03-04T00:25:33;19.58;;;9.25;;
66485;SDS011;53303;47.476;8.084;2023-03-04T00:27:58;20.17;;;9.10;;
66485;SDS011;53303;47.476;8.084;2023-03-04T00:30:24;21.80;;;9.80;;
66485;SDS011;53303;47.476;8.084;2023-03-04T00:32:52;20.83;;;10.02;;
66485;SDS011;53303;47.476;8.084;2023-03-04T00:35:17;21.27;;;9.25;;
66485;SDS011;53303;47.476;8.084;2023-03-04T00:37:43;19.58;;;9.68;;
66485;SDS011;53303;47.476;8.084;2023-03-04T00:40:10;23.23;;;9.45;;
66485;SDS011;53303;47.476;8.084;2023-03-04T00:42:39;19.88;;;9.43;;
66485;SDS011;53303;47.476;8.084;2023-03-04T00:45:04;16.85;;;8.85;;
66485;SDS011;53303;47.476;8.084;2023-03-04T00:47:30;21.38;;;10.07;;
66485;SDS011;53303;47.476;8.084;2023-03-04T00:49:56;19.27;;;9.45;;
66485;SDS011;53303;47.476;8.084;2023-03-04T00:52:21;21.65;;;9.60;;
66485;SDS011;53303;47.476;8.084;2023-03-04T00:54:47;20.13;;;9.63;;
66485;SDS011;53303;47.476;8.084;2023-03-04T00:57:12;20.98;;;9.27;;
66485;SDS011;53303;47.476;8.084;2023-03-04T00:59:40;17.58;;;9.05;;
66485;SDS011;53303;47.476;8.084;2023-03-04T01:02:07;18.17;;;9.32;;
66485;SDS011;53303;47.476;8.084;2023-03-04T01:04:33;17.90;;;8.43;;
66485;SDS011;53303;47.476;8.084;2023-03-04T01:06:59;25.98;;;9.60;;
66485;SDS011;53303;47.476;8.084;2023-03-04T01:09:24;21.67;;;9.80;;
66485;SDS011;53303;47.476;8.084;2023-03-04T01:11:55;16.52;;;9.10;;
66485;SDS011;53303;47.476;8.084;2023-03-04T01:14:20;21.63;;;9.32;;
66485;SDS011;53303;47.476;8.084;2023-03-04T01:16:47;19.33;;;9.65;;
66485;SDS011;53303;47.476;8.084;2023-03-04T01:19:16;20.88;;;9.18;;
66485;SDS011;53303;47.476;8.084;2023-03-04T01:21:44;16.73;;;9.25;;
66485;SDS011;53303;47.476;8.084;2023-03-04T01:24:11;18.63;;;9.10;;
66485;SDS011;53303;47.476;8.084;2023-03-04T01:26:39;15.15;;;9.07;;
66485;SDS011;53303;47.476;8.084;2023-03-04T01:29:07;20.73;;;9.55;;
66485;SDS011;53303;47.476;8.084;2023-03-04T01:31:33;21.13;;;9.57;;
66485;SDS011;53303;47.476;8.084;2023-03-04T01:33:58;17.52;;;9.18;;
66485;SDS011;53303;47.476;8.084;2023-03-04T01:36:23;16.58;;;9.02;;
66485;SDS011;53303;47.476;8.084;2023-03-04T01:38:49;17.75;;;8.68;;
66485;SDS011;53303;47.476;8.084;2023-03-04T01:41:14;19.30;;;9.27;;
66485;SDS011;53303;47.476;8.084;2023-03-04T01:43:46;17.85;;;8.63;;
66485;SDS011;53303;47.476;8.084;2023-03-04T01:46:11;16.30;;;8.75;;
66485;SDS011;53303;47.476;8.084;2023-03-04T01:48:41;18.58;;;9.30;;
66485;SDS011;53303;47.476;8.084;2023-03-04T01:51:12;18.10;;;9.80;;
66485;SDS011;53303;47.476;8.084;2023-03-04T01:53:41;16.02;;;9.55;;
66485;SDS011;53303;47.476;8.084;2023-03-04T01:58:40;20.63;;;9.60;;
66485;SDS011;53303;47.476;8.084;2023-03-04T02:01:09;16.75;;;9.05;;
66485;SDS011;53303;47.476;8.084;2023-03-04T02:03:35;16.55;;;9.07;;
66485;SDS011;53303;47.476;8.084;2023-03-04T02:06:01;18.77;;;9.32;;
66485;SDS011;53303;47.476;8.084;2023-03-04T02:08:26;15.80;;;9.13;;
66485;SDS011;53303;47.476;8.084;2023-03-04T02:10:52;20.27;;;9.57;;
66485;SDS011;53303;47.476;8.084;2023-03-04T02:13:18;16.83;;;9.60;;
66485;SDS011;53303;47.476;8.084;2023-03-04T02:15:44;16.95;;;9.30;;
66485;SDS011;53303;47.476;8.084;2023-03-04T02:18:19;16.77;;;9.20;;
66485;SDS011;53303;47.476;8.084;2023-03-04T02:26:27;18.15;;;9.43;;
66485;SDS011;53303;47.476;8.084;2023-03-04T02:28:56;17.20;;;9.00;;
66485;SDS011;53303;47.476;8.084;2023-03-04T02:33:51;20.05;;;10.13;;
66485;SDS011;53303;47.476;8.084;2023-03-04T02:36:19;16.58;;;8.93;;
66485;SDS011;53303;47.476;8.084;2023-03-04T02:38:44;17.50;;;9.40;;
66485;SDS011;53303;47.476;8.084;2023-03-04T02:41:16;16.95;;;8.98;;
66485;SDS011;53303;47.476;8.084;2023-03-04T02:43:46;15.18;;;8.57;;
66485;SDS011;53303;47.476;8.084;2023-03-04T02:46:14;16.35;;;9.13;;
66485;SDS011;53303;47.476;8.084;2023-03-04T02:48:39;16.83;;;9.13;;
66485;SDS011;53303;47.476;8.084;2023-03-04T02:51:04;17.90;;;9.82;;
66485;SDS011;53303;47.476;8.084;2023-03-04T02:53:33;16.42;;;8.98;;
66485;SDS011;53303;47.476;8.084;2023-03-04T02:55:58;18.55;;;9.18;;
66485;SDS011;53303;47.476;8.084;2023-03-04T02:58:23;17.13;;;9.23;;
66485;SDS011;53303;47.476;8.084;2023-03-04T03:00:49;15.90;;;8.95;;
66485;SDS011;53303;47.476;8.084;2023-03-04T03:03:14;16.42;;;9.15;;
66485;SDS011;53303;47.476;8.084;2023-03-04T03:05:40;16.27;;;8.77;;
66485;SDS011;53303;47.476;8.084;2023-03-04T03:08:05;17.02;;;9.82;;
66485;SDS011;53303;47.476;8.084;2023-03-04T03:10:31;15.73;;;9.05;;
66485;SDS011;53303;47.476;8.084;2023-03-04T03:12:57;15.73;;;9.38;;
66485;SDS011;53303;47.476;8.084;2023-03-04T03:15:25;20.17;;;9.40;;
66485;SDS011;53303;47.476;8.084;2023-03-04T03:17:50;14.90;;;9.35;;
66485;SDS011;53303;47.476;8.084;2023-03-04T03:20:16;15.45;;;8.85;;
66485;SDS011;53303;47.476;8.084;2023-03-04T03:22:42;16.23;;;9.38;;
66485;SDS011;53303;47.476;8.084;2023-03-04T03:25:11;15.95;;;9.52;;
66485;SDS011;53303;47.476;8.084;2023-03-04T03:27:37;15.85;;;9.05;;
66485;SDS011;53303;47.476;8.084;2023-03-04T03:30:03;15.30;;;9.55;;
66485;SDS011;53303;47.476;8.084;2023-03-04T03:32:30;15.25;;;9.10;;
66485;SDS011;53303;47.476;8.084;2023-03-04T03:34:55;15.95;;;9.48;;
66485;SDS011;53303;47.476;8.084;2023-03-04T03:37:21;16.55;;;9.27;;
66485;SDS011;53303;47.476;8.084;2023-03-04T03:39:46;18.85;;;9.45;;
66485;SDS011;53303;47.476;8.084;2023-03-04T03:42:12;16.45;;;9.70;;
66485;SDS011;53303;47.476;8.084;2023-03-04T03:44:37;18.65;;;9.23;;
66485;SDS011;53303;47.476;8.084;2023-03-04T03:47:02;17.17;;;9.38;;
66485;SDS011;53303;47.476;8.084;2023-03-04T03:49:30;16.85;;;9.65;;
66485;SDS011;53303;47.476;8.084;2023-03-04T03:51:58;17.35;;;9.68;;
66485;SDS011;53303;47.476;8.084;2023-03-04T03:54:23;15.43;;;9.32;;
66485;SDS011;53303;47.476;8.084;2023-03-04T03:56:51;16.60;;;9.60;;
66485;SDS011;53303;47.476;8.084;2023-03-04T03:59:19;15.52;;;9.25;;
66485;SDS011;53303;47.476;8.084;2023-03-04T04:01:45;15.65;;;9.13;;
66485;SDS011;53303;47.476;8.084;2023-03-04T04:04:12;17.30;;;9.75;;
66485;SDS011;53303;47.476;8.084;2023-03-04T04:06:38;15.40;;;9.80;;
66485;SDS011;53303;47.476;8.084;2023-03-04T04:09:03;15.00;;;9.63;;
66485;SDS011;53303;47.476;8.084;2023-03-04T04:11:29;16.63;;;9.88;;
66485;SDS011;53303;47.476;8.084;2023-03-04T04:13:56;17.02;;;9.00;;
66485;SDS011;53303;47.476;8.084;2023-03-04T04:16:22;16.55;;;9.35;;
66485;SDS011;53303;47.476;8.084;2023-03-04T04:18:47;17.00;;;9.27;;
66485;SDS011;53303;47.476;8.084;2023-03-04T04:21:13;15.20;;;9.05;;
66485;SDS011;53303;47.476;8.084;2023-03-04T04:23:41;17.98;;;10.18;;
66485;SDS011;53303;47.476;8.084;2023-03-04T04:26:06;16.13;;;9.25;;
66485;SDS011;53303;47.476;8.084;2023-03-04T04:28:34;14.85;;;9.75;;
66485;SDS011;53303;47.476;8.084;2023-03-04T04:30:59;15.85;;;9.60;;
66485;SDS011;53303;47.476;8.084;2023-03-04T04:33:25;16.90;;;9.38;;
66485;SDS011;53303;47.476;8.084;2023-03-04T04:35:50;16.30;;;9.27;;
66485;SDS011;53303;47.476;8.084;2023-03-04T04:38:16;16.00;;;9.45;;
66485;SDS011;53303;47.476;8.084;2023-03-04T04:40:41;14.52;;;9.18;;
66485;SDS011;53303;47.476;8.084;2023-03-04T04:43:07;16.42;;;9.40;;
66485;SDS011;53303;47.476;8.084;2023-03-04T04:45:35;15.88;;;9.13;;
66485;SDS011;53303;47.476;8.084;2023-03-04T04:48:00;15.13;;;9.57;;
66485;SDS011;53303;47.476;8.084;2023-03-04T04:50:26;15.60;;;9.43;;
66485;SDS011;53303;47.476;8.084;2023-03-04T04:52:51;15.32;;;9.38;;
66485;SDS011;53303;47.476;8.084;2023-03-04T04:55:17;15.88;;;9.43;;
66485;SDS011;53303;47.476;8.084;2023-03-04T04:57:42;17.30;;;9.70;;
66485;SDS011;53303;47.476;8.084;2023-03-04T05:00:08;14.68;;;9.65;;
66485;SDS011;53303;47.476;8.084;2023-03-04T05:02:35;14.27;;;8.75;;
66485;SDS011;53303;47.476;8.084;2023-03-04T05:05:02;15.02;;;8.93;;
66485;SDS011;53303;47.476;8.084;2023-03-04T05:07:28;15.43;;;9.60;;
66485;SDS011;53303;47.476;8.084;2023-03-04T05:09:53;17.52;;;9.40;;
66485;SDS011;53303;47.476;8.084;2023-03-04T05:12:19;16.80;;;9.77;;
66485;SDS011;53303;47.476;8.084;2023-03-04T05:14:44;17.83;;;9.50;;
66485;SDS011;53303;47.476;8.084;2023-03-04T05:17:09;16.80;;;8.98;;
66485;SDS011;53303;47.476;8.084;2023-03-04T05:19:37;16.80;;;9.30;;
66485;SDS011;53303;47.476;8.084;2023-03-04T05:22:05;16.73;;;9.75;;
66485;SDS011;53303;47.476;8.084;2023-03-04T05:24:30;14.93;;;9.40;;
66485;SDS011;53303;47.476;8.084;2023-03-04T05:26:56;17.95;;;9.30;;
66485;SDS011;53303;47.476;8.084;2023-03-04T05:29:21;14.77;;;9.82;;
66485;SDS011;53303;47.476;8.084;2023-03-04T05:31:47;16.45;;;9.68;;
66485;SDS011;53303;47.476;8.084;2023-03-04T05:34:12;17.00;;;9.20;;
66485;SDS011;53303;47.476;8.084;2023-03-04T05:36:40;13.75;;;9.00;;
66485;SDS011;53303;47.476;8.084;2023-03-04T05:39:05;15.15;;;9.40;;
66485;SDS011;53303;47.476;8.084;2023-03-04T05:41:33;16.23;;;9.52;;
66485;SDS011;53303;47.476;8.084;2023-03-04T05:44:02;14.93;;;8.93;;
66485;SDS011;53303;47.476;8.084;2023-03-04T05:46:27;17.58;;;10.00;;
66485;SDS011;53303;47.476;8.084;2023-03-04T05:48:53;16.08;;;9.48;;
66485;SDS011;53303;47.476;8.084;2023-03-04T05:51:19;15.52;;;9.63;;
66485;SDS011;53303;47.476;8.084;2023-03-04T05:53:45;16.73;;;9.80;;
66485;SDS011;53303;47.476;8.084;2023-03-04T05:56:13;14.23;;;8.57;;
66485;SDS011;53303;47.476;8.084;2023-03-04T05:58:41;15.35;;;9.63;;
66485;SDS011;53303;47.476;8.084;2023-03-04T06:01:11;18.73;;;9.30;;
66485;SDS011;53303;47.476;8.084;2023-03-04T06:03:37;15.05;;;9.60;;
66485;SDS011;53303;47.476;8.084;2023-03-04T06:06:03;16.95;;;10.23;;
66485;SDS011;53303;47.476;8.084;2023-03-04T06:08:29;14.25;;;9.20;;
66485;SDS011;53303;47.476;8.084;2023-03-04T06:10:55;14.95;;;8.90;;
66485;SDS011;53303;47.476;8.084;2023-03-04T06:13:22;15.27;;;10.35;;
66485;SDS011;53303;47.476;8.084;2023-03-04T06:15:52;14.23;;;9.15;;
66485;SDS011;53303;47.476;8.084;2023-03-04T06:18:18;18.15;;;8.93;;
66485;SDS011;53303;47.476;8.084;2023-03-04T06:20:46;15.45;;;9.65;;
66485;SDS011;53303;47.476;8.084;2023-03-04T06:23:14;17.58;;;9.55;;
66485;SDS011;53303;47.476;8.084;2023-03-04T06:25:40;13.48;;;8.70;;
66485;SDS011;53303;47.476;8.084;2023-03-04T06:28:05;16.48;;;9.57;;
66485;SDS011;53303;47.476;8.084;2023-03-04T06:30:31;20.38;;;10.50;;
66485;SDS011;53303;47.476;8.084;2023-03-04T06:32:56;16.10;;;9.02;;
66485;SDS011;53303;47.476;8.084;2023-03-04T06:35:22;15.32;;;9.48;;
66485;SDS011;53303;47.476;8.084;2023-03-04T06:37:47;13.85;;;9.98;;
66485;SDS011;53303;47.476;8.084;2023-03-04T06:40:13;15.65;;;10.00;;
66485;SDS011;53303;47.476;8.084;2023-03-04T06:42:39;16.02;;;9.75;;
66485;SDS011;53303;47.476;8.084;2023-03-04T06:45:05;16.08;;;10.13;;
66485;SDS011;53303;47.476;8.084;2023-03-04T06:47:31;15.55;;;9.30;;
66485;SDS011;53303;47.476;8.084;2023-03-04T06:49:56;17.13;;;9.60;;
66485;SDS011;53303;47.476;8.084;2023-03-04T06:52:22;16.10;;;9.52;;
66485;SDS011;53303;47.476;8.084;2023-03-04T06:54:47;16.23;;;9.75;;
66485;SDS011;53303;47.476;8.084;2023-03-04T06:57:13;16.10;;;9.68;;
66485;SDS011;53303;47.476;8.084;2023-03-04T06:59:40;15.23;;;9.48;;
66485;SDS011;53303;47.476;8.084;2023-03-04T07:02:11;14.50;;;8.93;;
66485;SDS011;53303;47.476;8.084;2023-03-04T07:04:37;16.85;;;9.98;;
66485;SDS011;53303;47.476;8.084;2023-03-04T07:07:02;17.55;;;10.40;;
66485;SDS011;53303;47.476;8.084;2023-03-04T07:09:30;19.45;;;11.48;;
66485;SDS011;53303;47.476;8.084;2023-03-04T07:11:55;22.98;;;12.07;;
66485;SDS011;53303;47.476;8.084;2023-03-04T07:14:23;24.35;;;12.35;;
66485;SDS011;53303;47.476;8.084;2023-03-04T07:16:49;29.60;;;13.70;;
66485;SDS011;53303;47.476;8.084;2023-03-04T07:19:15;28.95;;;13.20;;
66485;SDS011;53303;47.476;8.084;2023-03-04T07:21:41;29.75;;;13.52;;
66485;SDS011;53303;47.476;8.084;2023-03-04T07:24:06;26.90;;;12.48;;
66485;SDS011;53303;47.476;8.084;2023-03-04T07:26:32;25.00;;;12.85;;
66485;SDS011;53303;47.476;8.084;2023-03-04T07:28:57;23.10;;;12.00;;
66485;SDS011;53303;47.476;8.084;2023-03-04T07:31:24;20.98;;;12.15;;
66485;SDS011;53303;47.476;8.084;2023-03-04T07:33:58;20.90;;;11.25;;
66485;SDS011;53303;47.476;8.084;2023-03-04T07:36:25;25.88;;;12.23;;
66485;SDS011;53303;47.476;8.084;2023-03-04T07:38:51;25.02;;;11.88;;
66485;SDS011;53303;47.476;8.084;2023-03-04T07:41:19;24.05;;;11.20;;
66485;SDS011;53303;47.476;8.084;2023-03-04T07:43:45;24.77;;;11.48;;
66485;SDS011;53303;47.476;8.084;2023-03-04T07:46:13;24.40;;;12.07;;
66485;SDS011;53303;47.476;8.084;2023-03-04T07:48:39;21.77;;;11.05;;
66485;SDS011;53303;47.476;8.084;2023-03-04T07:51:05;20.90;;;11.35;;
66485;SDS011;53303;47.476;8.084;2023-03-04T07:53:35;19.70;;;10.45;;
66485;SDS011;53303;47.476;8.084;2023-03-04T07:56:04;20.45;;;10.70;;
66485;SDS011;53303;47.476;8.084;2023-03-04T07:58:31;22.08;;;11.10;;
66485;SDS011;53303;47.476;8.084;2023-03-04T08:00:57;22.10;;;11.30;;
66485;SDS011;53303;47.476;8.084;2023-03-04T08:03:32;23.23;;;9.95;;
66485;SDS011;53303;47.476;8.084;2023-03-04T08:05:57;19.08;;;10.52;;
66485;SDS011;53303;47.476;8.084;2023-03-04T08:08:25;19.23;;;10.68;;
66485;SDS011;53303;47.476;8.084;2023-03-04T08:10:50;19.90;;;10.45;;
66485;SDS011;53303;47.476;8.084;2023-03-04T08:13:15;16.77;;;10.20;;
66485;SDS011;53303;47.476;8.084;2023-03-04T08:15:41;18.25;;;10.20;;
66485;SDS011;53303;47.476;8.084;2023-03-04T08:18:07;18.13;;;9.77;;
66485;SDS011;53303;47.476;8.084;2023-03-04T08:20:32;22.55;;;10.45;;
66485;SDS011;53303;47.476;8.084;2023-03-04T08:22:58;18.42;;;10.13;;
66485;SDS011;53303;47.476;8.084;2023-03-04T08:25:23;19.88;;;10.82;;
66485;SDS011;53303;47.476;8.084;2023-03-04T08:27:51;17.42;;;10.55;;
66485;SDS011;53303;47.476;8.084;2023-03-04T08:30:17;19.73;;;10.40;;
66485;SDS011;53303;47.476;8.084;2023-03-04T08:32:42;16.92;;;9.93;;
66485;SDS011;53303;47.476;8.084;2023-03-04T08:35:08;20.55;;;9.95;;
66485;SDS011;53303;47.476;8.084;2023-03-04T08:37:37;20.27;;;10.55;;
66485;SDS011;53303;47.476;8.084;2023-03-04T08:40:03;16.60;;;9.63;;
66485;SDS011;53303;47.476;8.084;2023-03-04T08:42:29;17.20;;;9.95;;
66485;SDS011;53303;47.476;8.084;2023-03-04T08:44:57;21.08;;;10.55;;
66485;SDS011;53303;47.476;8.084;2023-03-04T08:47:22;19.70;;;10.10;;
66485;SDS011;53303;47.476;8.084;2023-03-04T08:49:48;19.83;;;10.00;;
66485;SDS011;53303;47.476;8.084;2023-03-04T08:52:13;16.88;;;9.93;;
66485;SDS011;53303;47.476;8.084;2023-03-04T08:54:41;19.10;;;10.10;;
66485;SDS011;53303;47.476;8.084;2023-03-04T08:57:06;16.48;;;10.07;;
66485;SDS011;53303;47.476;8.084;2023-03-04T08:59:31;16.17;;;9.20;;
66485;SDS011;53303;47.476;8.084;2023-03-04T09:01:57;18.65;;;10.00;;
66485;SDS011;53303;47.476;8.084;2023-03-04T09:04:22;16.02;;;9.27;;
66485;SDS011;53303;47.476;8.084;2023-03-04T09:06:50;16.65;;;10.18;;
66485;SDS011;53303;47.476;8.084;2023-03-04T09:09:15;16.23;;;10.00;;
66485;SDS011;53303;47.476;8.084;2023-03-04T09:11:41;15.70;;;9.70;;
66485;SDS011;53303;47.476;8.084;2023-03-04T09:14:09;17.83;;;9.45;;
66485;SDS011;53303;47.476;8.084;2023-03-04T09:16:34;17.27;;;9.93;;
66485;SDS011;53303;47.476;8.084;2023-03-04T09:18:59;15.77;;;9.55;;
66485;SDS011;53303;47.476;8.084;2023-03-04T09:21:25;16.15;;;10.10;;
66485;SDS011;53303;47.476;8.084;2023-03-04T09:23:50;17.27;;;9.52;;
66485;SDS011;53303;47.476;8.084;2023-03-04T09:26:18;16.27;;;9.43;;
66485;SDS011;53303;47.476;8.084;2023-03-04T09:28:53;14.90;;;10.00;;
66485;SDS011;53303;47.476;8.084;2023-03-04T09:31:21;15.32;;;10.02;;
66485;SDS011;53303;47.476;8.084;2023-03-04T09:33:47;16.10;;;9.63;;
66485;SDS011;53303;47.476;8.084;2023-03-04T09:36:13;19.25;;;9.88;;
66485;SDS011;53303;47.476;8.084;2023-03-04T09:38:40;18.67;;;9.82;;
66485;SDS011;53303;47.476;8.084;2023-03-04T09:41:07;15.68;;;9.32;;
66485;SDS011;53303;47.476;8.084;2023-03-04T09:43:56;14.63;;;9.38;;
66485;SDS011;53303;47.476;8.084;2023-03-04T09:46:27;15.50;;;9.70;;
66485;SDS011;53303;47.476;8.084;2023-03-04T09:48:58;15.02;;;9.38;;
66485;SDS011;53303;47.476;8.084;2023-03-04T09:56:33;17.05;;;9.60;;
66485;SDS011;53303;47.476;8.084;2023-03-04T10:01:36;14.93;;;9.13;;
66485;SDS011;53303;47.476;8.084;2023-03-04T10:04:55;16.65;;;10.13;;
66485;SDS011;53303;47.476;8.084;2023-03-04T10:07:04;15.15;;;9.18;;
66485;SDS011;53303;47.476;8.084;2023-03-04T10:09:48;14.63;;;9.73;;
66485;SDS011;53303;47.476;8.084;2023-03-04T10:12:21;16.98;;;9.32;;
66485;SDS011;53303;47.476;8.084;2023-03-04T10:15:03;17.45;;;10.18;;
66485;SDS011;53303;47.476;8.084;2023-03-04T10:17:45;13.95;;;9.57;;
66485;SDS011;53303;47.476;8.084;2023-03-04T10:20:18;13.98;;;9.35;;
66485;SDS011;53303;47.476;8.084;2023-03-04T10:22:50;17.88;;;10.60;;
66485;SDS011;53303;47.476;8.084;2023-03-04T10:25:18;16.83;;;10.23;;
66485;SDS011;53303;47.476;8.084;2023-03-04T10:30:47;16.83;;;9.07;;
66485;SDS011;53303;47.476;8.084;2023-03-04T10:33:15;16.20;;;9.40;;
66485;SDS011;53303;47.476;8.084;2023-03-04T10:35:44;14.73;;;9.05;;
66485;SDS011;53303;47.476;8.084;2023-03-04T10:38:13;13.85;;;9.07;;
66485;SDS011;53303;47.476;8.084;2023-03-04T10:40:40;15.10;;;8.40;;
66485;SDS011;53303;47.476;8.084;2023-03-04T10:43:18;14.57;;;8.60;;
66485;SDS011;53303;47.476;8.084;2023-03-04T10:45:45;13.23;;;8.90;;
66485;SDS011;53303;47.476;8.084;2023-03-04T10:48:25;13.40;;;8.45;;
66485;SDS011;53303;47.476;8.084;2023-03-04T10:51:09;14.77;;;8.57;;
66485;SDS011;53303;47.476;8.084;2023-03-04T10:53:41;12.98;;;8.40;;
66485;SDS011;53303;47.476;8.084;2023-03-04T11:02:12;16.23;;;8.88;;
66485;SDS011;53303;47.476;8.084;2023-03-04T11:04:50;18.40;;;9.48;;
66485;SDS011;53303;47.476;8.084;2023-03-04T11:07:25;17.65;;;9.07;;
66485;SDS011;53303;47.476;8.084;2023-03-04T11:09:51;16.77;;;9.25;;
66485;SDS011;53303;47.476;8.084;2023-03-04T11:12:19;22.83;;;9.20;;
66485;SDS011;53303;47.476;8.084;2023-03-04T11:14:47;15.63;;;9.00;;
66485;SDS011;53303;47.476;8.084;2023-03-04T11:17:19;14.38;;;8.38;;
66485;SDS011;53303;47.476;8.084;2023-03-04T11:20:25;14.13;;;8.82;;
66485;SDS011;53303;47.476;8.084;2023-03-04T11:23:05;15.98;;;9.25;;
66485;SDS011;53303;47.476;8.084;2023-03-04T11:25:40;13.50;;;8.38;;
66485;SDS011;53303;47.476;8.084;2023-03-04T11:28:47;15.07;;;8.85;;
66485;SDS011;53303;47.476;8.084;2023-03-04T11:31:16;13.93;;;9.00;;
66485;SDS011;53303;47.476;8.084;2023-03-04T11:36:35;16.83;;;8.65;;
66485;SDS011;53303;47.476;8.084;2023-03-04T11:39:19;15.68;;;9.00;;
66485;SDS011;53303;47.476;8.084;2023-03-04T11:42:10;14.60;;;9.27;;
66485;SDS011;53303;47.476;8.084;2023-03-04T11:44:47;14.48;;;8.77;;
66485;SDS011;53303;47.476;8.084;2023-03-04T11:47:18;16.95;;;8.80;;
66485;SDS011;53303;47.476;8.084;2023-03-04T11:55:37;13.63;;;8.98;;
66485;SDS011;53303;47.476;8.084;2023-03-04T12:12:48;19.02;;;9.50;;
66485;SDS011;53303;47.476;8.084;2023-03-04T12:31:49;15.10;;;9.52;;
66485;SDS011;53303;47.476;8.084;2023-03-04T12:40:11;16.83;;;9.40;;
66485;SDS011;53303;47.476;8.084;2023-03-04T12:43:03;15.18;;;9.25;;
66485;SDS011;53303;47.476;8.084;2023-03-04T12:48:31;14.50;;;9.18;;
66485;SDS011;53303;47.476;8.084;2023-03-04T12:59:01;15.68;;;9.70;;
66485;SDS011;53303;47.476;8.084;2023-03-04T13:01:34;15.80;;;9.55;;
66485;SDS011;53303;47.476;8.084;2023-03-04T13:17:41;13.60;;;9.07;;
66485;SDS011;53303;47.476;8.084;2023-03-04T13:41:12;13.88;;;8.75;;
66485;SDS011;53303;47.476;8.084;2023-03-04T13:43:53;14.23;;;9.20;;
66485;SDS011;53303;47.476;8.084;2023-03-04T13:46:39;13.90;;;8.60;;
66485;SDS011;53303;47.476;8.084;2023-03-04T13:49:13;13.82;;;9.00;;
66485;SDS011;53303;47.476;8.084;2023-03-04T13:51:44;15.52;;;8.93;;
66485;SDS011;53303;47.476;8.084;2023-03-04T13:54:26;13.60;;;8.77;;
66485;SDS011;53303;47.476;8.084;2023-03-04T13:59:47;15.32;;;9.35;;
66485;SDS011;53303;47.476;8.084;2023-03-04T14:02:21;13.38;;;8.60;;
66485;SDS011;53303;47.476;8.084;2023-03-04T14:04:58;13.52;;;8.88;;
66485;SDS011;53303;47.476;8.084;2023-03-04T14:17:38;15.85;;;9.05;;
66485;SDS011;53303;47.476;8.084;2023-03-04T14:22:57;13.43;;;8.88;;
66485;SDS011;53303;47.476;8.084;2023-03-04T14:30:28;12.73;;;8.30;;
66485;SDS011;53303;47.476;8.084;2023-03-04T14:32:55;13.93;;;8.93;;
66485;SDS011;53303;47.476;8.084;2023-03-04T14:35:29;14.55;;;8.88;;
66485;SDS011;53303;47.476;8.084;2023-03-04T14:38:02;13.00;;;8.57;;
66485;SDS011;53303;47.476;8.084;2023-03-04T14:40:41;14.55;;;8.70;;
66485;SDS011;53303;47.476;8.084;2023-03-04T14:45:44;13.93;;;8.50;;
66485;SDS011;53303;47.476;8.084;2023-03-04T14:48:15;14.20;;;8.40;;
66485;SDS011;53303;47.476;8.084;2023-03-04T14:50:52;12.93;;;8.02;;
66485;SDS011;53303;47.476;8.084;2023-03-04T14:53:21;13.30;;;8.45;;
66485;SDS011;53303;47.476;8.084;2023-03-04T14:56:04;13.35;;;8.48;;
66485;SDS011;53303;47.476;8.084;2023-03-04T14:58:38;11.77;;;8.38;;
66485;SDS011;53303;47.476;8.084;2023-03-04T15:01:18;12.73;;;7.93;;
66485;SDS011;53303;47.476;8.084;2023-03-04T15:03:54;13.73;;;8.63;;
66485;SDS011;53303;47.476;8.084;2023-03-04T15:06:25;13.07;;;8.73;;
66485;SDS011;53303;47.476;8.084;2023-03-04T15:08:53;13.27;;;8.93;;
66485;SDS011;53303;47.476;8.084;2023-03-04T15:11:26;13.32;;;8.55;;
66485;SDS011;53303;47.476;8.084;2023-03-04T15:22:28;13.07;;;8.38;;
66485;SDS011;53303;47.476;8.084;2023-03-04T15:24:56;14.75;;;8.27;;
66485;SDS011;53303;47.476;8.084;2023-03-04T15:27:25;13.13;;;8.07;;
66485;SDS011;53303;47.476;8.084;2023-03-04T15:29:52;15.23;;;8.68;;
66485;SDS011;53303;47.476;8.084;2023-03-04T15:32:26;13.35;;;8.48;;
66485;SDS011;53303;47.476;8.084;2023-03-04T15:34:55;14.80;;;8.32;;
66485;SDS011;53303;47.476;8.084;2023-03-04T15:37:24;12.80;;;7.97;;
66485;SDS011;53303;47.476;8.084;2023-03-04T15:39:55;12.25;;;8.52;;
66485;SDS011;53303;47.476;8.084;2023-03-04T15:42:22;12.20;;;7.63;;
66485;SDS011;53303;47.476;8.084;2023-03-04T15:44:48;12.80;;;8.10;;
66485;SDS011;53303;47.476;8.084;2023-03-04T15:47:13;11.70;;;7.78;;
66485;SDS011;53303;47.476;8.084;2023-03-04T15:49:41;13.50;;;8.15;;
66485;SDS011;53303;47.476;8.084;2023-03-04T15:52:16;13.25;;;8.02;;
66485;SDS011;53303;47.476;8.084;2023-03-04T15:54:44;12.52;;;7.72;;
66485;SDS011;53303;47.476;8.084;2023-03-04T15:57:24;13.18;;;7.97;;
66485;SDS011;53303;47.476;8.084;2023-03-04T15:59:51;12.30;;;7.82;;
66485;SDS011;53303;47.476;8.084;2023-03-04T16:02:21;12.68;;;8.45;;
66485;SDS011;53303;47.476;8.084;2023-03-04T16:04:51;12.18;;;8.02;;
66485;SDS011;53303;47.476;8.084;2023-03-04T16:07:18;14.93;;;8.68;;
66485;SDS011;53303;47.476;8.084;2023-03-04T16:09:47;14.02;;;7.75;;
66485;SDS011;53303;47.476;8.084;2023-03-04T16:12:17;13.23;;;7.80;;
66485;SDS011;53303;47.476;8.084;2023-03-04T16:14:43;13.25;;;7.63;;
66485;SDS011;53303;47.476;8.084;2023-03-04T16:17:10;12.40;;;7.85;;
66485;SDS011;53303;47.476;8.084;2023-03-04T16:19:36;14.60;;;7.70;;
66485;SDS011;53303;47.476;8.084;2023-03-04T16:22:02;14.48;;;8.13;;
66485;SDS011;53303;47.476;8.084;2023-03-04T16:24:28;13.25;;;7.90;;
66485;SDS011;53303;47.476;8.084;2023-03-04T16:27:00;12.15;;;8.07;;
66485;SDS011;53303;47.476;8.084;2023-03-04T16:29:25;12.23;;;7.57;;
66485;SDS011;53303;47.476;8.084;2023-03-04T16:31:52;14.00;;;7.90;;
66485;SDS011;53303;47.476;8.084;2023-03-04T16:34:20;12.63;;;7.43;;
66485;SDS011;53303;47.476;8.084;2023-03-04T16:36:46;13.07;;;8.52;;
66485;SDS011;53303;47.476;8.084;2023-03-04T16:39:14;12.40;;;7.50;;
66485;SDS011;53303;47.476;8.084;2023-03-04T16:41:46;11.07;;;7.07;;
66485;SDS011;53303;47.476;8.084;2023-03-04T16:44:11;11.90;;;7.45;;
66485;SDS011;53303;47.476;8.084;2023-03-04T16:46:38;12.60;;;7.65;;
66485;SDS011;53303;47.476;8.084;2023-03-04T16:49:03;13.23;;;7.60;;
66485;SDS011;53303;47.476;8.084;2023-03-04T16:51:29;12.18;;;7.60;;
66485;SDS011;53303;47.476;8.084;2023-03-04T16:53:59;12.70;;;7.80;;
66485;SDS011;53303;47.476;8.084;2023-03-04T16:56:25;11.38;;;7.30;;
66485;SDS011;53303;47.476;8.084;2023-03-04T16:58:51;12.73;;;7.00;;
66485;SDS011;53303;47.476;8.084;2023-03-04T17:01:21;12.15;;;7.75;;
66485;SDS011;53303;47.476;8.084;2023-03-04T17:03:48;10.90;;;7.30;;
66485;SDS011;53303;47.476;8.084;2023-03-04T17:06:14;13.75;;;7.85;;
66485;SDS011;53303;47.476;8.084;2023-03-04T17:08:42;13.65;;;7.90;;
66485;SDS011;53303;47.476;8.084;2023-03-04T17:11:15;13.38;;;7.20;;